sensor_id;sensor_type;location;lat;lon;timestamp;P1;durP1;ratioP1;P2;durP2;ratioP2
23206;SDS011;11773;52.570;13.052;2024-03-08T00:01:53;2.87;;;2.23;;
23206;SDS011;11773;52.570;13.052;2024-03-08T00:04:23;2.27;;;1.93;;
23206;SDS011;11773;52.570;13.052;2024-03-08T00:06:52;2.57;;;2.20;;
23206;SDS011;11773;52.570;13.052;2024-03-08T00:09:22;2.43;;;2.13;;
23206;SDS011;11773;52.570;13.052;2024-03-08T00:11:53;3.03;;;2.30;;
23206;SDS011;11773;52.570;13.052;2024-03-08T00:14:23;2.73;;;2.40;;
23206;SDS011;11773;52.570;13.052;2024-03-08T00:16:53;3.03;;;2.30;;
23206;SDS011;11773;52.570;13.052;2024-03-08T00:19:22;2.87;;;2.47;;
23206;SDS011;11773;52.570;13.052;2024-03-08T00:21:52;2.93;;;2.40;;
23206;SDS011;11773;52.570;13.052;2024-03-08T00:24:22;2.87;;;2.30;;
23206;SDS011;11773;52.570;13.052;2024-03-08T00:26:52;2.87;;;2.47;;
23206;SDS011;11773;52.570;13.052;2024-03-08T00:29:21;3.03;;;2.70;;
23206;SDS011;11773;52.570;13.052;2024-03-08T00:31:51;3.43;;;2.53;;
23206;SDS011;11773;52.570;13.052;2024-03-08T00:34:21;2.47;;;2.17;;
23206;SDS011;11773;52.570;13.052;2024-03-08T00:36:50;2.50;;;2.30;;
23206;SDS011;11773;52.570;13.052;2024-03-08T00:39:20;3.00;;;2.50;;
23206;SDS011;11773;52.570;13.052;2024-03-08T00:41:49;3.10;;;2.73;;
23206;SDS011;11773;52.570;13.052;2024-03-08T00:44:19;3.03;;;2.50;;
23206;SDS011;11773;52.570;13.052;2024-03-08T00:46:49;3.00;;;2.40;;
23206;SDS011;11773;52.570;13.052;2024-03-08T00:49:20;3.13;;;2.37;;
23206;SDS011;11773;52.570;13.052;2024-03-08T00:51:49;2.47;;;2.07;;
23206;SDS011;11773;52.570;13.052;2024-03-08T00:54:19;2.40;;;2.20;;
23206;SDS011;11773;52.570;13.052;2024-03-08T00:56:49;2.33;;;2.13;;
23206;SDS011;11773;52.570;13.052;2024-03-08T00:59:18;3.13;;;2.27;;
23206;SDS011;11773;52.570;13.052;2024-03-08T01:01:48;2.20;;;1.73;;
23206;SDS011;11773;52.570;13.052;2024-03-08T01:04:18;2.27;;;2.03;;
23206;SDS011;11773;52.570;13.052;2024-03-08T01:06:48;2.87;;;2.30;;
23206;SDS011;11773;52.570;13.052;2024-03-08T01:09:17;2.80;;;2.00;;
23206;SDS011;11773;52.570;13.052;2024-03-08T01:11:48;3.00;;;2.37;;
23206;SDS011;11773;52.570;13.052;2024-03-08T01:14:20;3.10;;;2.50;;
23206;SDS011;11773;52.570;13.052;2024-03-08T01:16:50;3.70;;;2.80;;
23206;SDS011;11773;52.570;13.052;2024-03-08T01:19:22;2.30;;;2.10;;
23206;SDS011;11773;52.570;13.052;2024-03-08T01:21:51;3.20;;;2.70;;
23206;SDS011;11773;52.570;13.052;2024-03-08T01:24:23;2.57;;;2.20;;
23206;SDS011;11773;52.570;13.052;2024-03-08T01:26:52;3.00;;;2.60;;
23206;SDS011;11773;52.570;13.052;2024-03-08T01:29:22;3.00;;;2.30;;
23206;SDS011;11773;52.570;13.052;2024-03-08T01:31:52;2.50;;;2.30;;
23206;SDS011;11773;52.570;13.052;2024-03-08T01:34:22;2.90;;;2.53;;
23206;SDS011;11773;52.570;13.052;2024-03-08T01:36:51;3.13;;;2.13;;
23206;SDS011;11773;52.570;13.052;2024-03-08T01:39:22;3.33;;;2.50;;
23206;SDS011;11773;52.570;13.052;2024-03-08T01:41:52;2.73;;;2.13;;
23206;SDS011;11773;52.570;13.052;2024-03-08T01:44:22;2.23;;;1.83;;
23206;SDS011;11773;52.570;13.052;2024-03-08T01:46:52;3.20;;;2.43;;
23206;SDS011;11773;52.570;13.052;2024-03-08T01:49:23;2.97;;;2.13;;
23206;SDS011;11773;52.570;13.052;2024-03-08T01:51:55;2.40;;;2.07;;
23206;SDS011;11773;52.570;13.052;2024-03-08T01:54:25;2.70;;;1.93;;
23206;SDS011;11773;52.570;13.052;2024-03-08T01:56:57;2.10;;;1.83;;
23206;SDS011;11773;52.570;13.052;2024-03-08T01:59:27;2.40;;;1.93;;
23206;SDS011;11773;52.570;13.052;2024-03-08T02:01:58;2.53;;;2.17;;
23206;SDS011;11773;52.570;13.052;2024-03-08T02:04:30;2.30;;;2.07;;
23206;SDS011;11773;52.570;13.052;2024-03-08T02:06:59;2.60;;;2.10;;
23206;SDS011;11773;52.570;13.052;2024-03-08T02:09:32;2.40;;;1.87;;
23206;SDS011;11773;52.570;13.052;2024-03-08T02:12:02;2.50;;;2.20;;
23206;SDS011;11773;52.570;13.052;2024-03-08T02:14:32;2.67;;;2.10;;
23206;SDS011;11773;52.570;13.052;2024-03-08T02:17:02;2.37;;;2.17;;
23206;SDS011;11773;52.570;13.052;2024-03-08T02:19:31;2.10;;;1.80;;
23206;SDS011;11773;52.570;13.052;2024-03-08T02:22:03;2.40;;;1.93;;
23206;SDS011;11773;52.570;13.052;2024-03-08T02:24:34;3.20;;;2.13;;
23206;SDS011;11773;52.570;13.052;2024-03-08T02:27:04;2.90;;;2.27;;
23206;SDS011;11773;52.570;13.052;2024-03-08T02:29:34;2.83;;;2.10;;
23206;SDS011;11773;52.570;13.052;2024-03-08T02:32:06;2.40;;;2.17;;
23206;SDS011;11773;52.570;13.052;2024-03-08T02:34:36;2.50;;;2.20;;
23206;SDS011;11773;52.570;13.052;2024-03-08T02:37:06;2.63;;;2.30;;
23206;SDS011;11773;52.570;13.052;2024-03-08T02:39:36;2.67;;;1.80;;
23206;SDS011;11773;52.570;13.052;2024-03-08T02:42:05;2.70;;;2.10;;
23206;SDS011;11773;52.570;13.052;2024-03-08T02:44:35;2.20;;;1.90;;
23206;SDS011;11773;52.570;13.052;2024-03-08T02:47:05;3.03;;;2.07;;
23206;SDS011;11773;52.570;13.052;2024-03-08T02:49:34;2.80;;;2.10;;
23206;SDS011;11773;52.570;13.052;2024-03-08T02:52:05;2.27;;;2.00;;
23206;SDS011;11773;52.570;13.052;2024-03-08T02:54:34;2.10;;;1.80;;
23206;SDS011;11773;52.570;13.052;2024-03-08T02:57:04;2.57;;;2.10;;
23206;SDS011;11773;52.570;13.052;2024-03-08T02:59:34;2.20;;;1.90;;
23206;SDS011;11773;52.570;13.052;2024-03-08T03:02:05;2.20;;;2.00;;
23206;SDS011;11773;52.570;13.052;2024-03-08T03:04:39;2.10;;;1.80;;
23206;SDS011;11773;52.570;13.052;2024-03-08T03:07:10;2.50;;;2.03;;
23206;SDS011;11773;52.570;13.052;2024-03-08T03:09:39;2.20;;;1.80;;
23206;SDS011;11773;52.570;13.052;2024-03-08T03:12:09;2.40;;;2.00;;
23206;SDS011;11773;52.570;13.052;2024-03-08T03:14:39;2.93;;;2.40;;
23206;SDS011;11773;52.570;13.052;2024-03-08T03:17:08;3.50;;;2.30;;
23206;SDS011;11773;52.570;13.052;2024-03-08T03:19:40;3.23;;;2.23;;
23206;SDS011;11773;52.570;13.052;2024-03-08T03:22:09;2.47;;;2.23;;
23206;SDS011;11773;52.570;13.052;2024-03-08T03:24:39;2.20;;;1.93;;
23206;SDS011;11773;52.570;13.052;2024-03-08T03:27:09;3.17;;;2.43;;
23206;SDS011;11773;52.570;13.052;2024-03-08T03:29:39;2.50;;;1.93;;
23206;SDS011;11773;52.570;13.052;2024-03-08T03:32:12;2.73;;;2.27;;
23206;SDS011;11773;52.570;13.052;2024-03-08T03:34:42;2.30;;;1.90;;
23206;SDS011;11773;52.570;13.052;2024-03-08T03:37:12;3.20;;;2.20;;
23206;SDS011;11773;52.570;13.052;2024-03-08T03:39:41;2.33;;;1.80;;
23206;SDS011;11773;52.570;13.052;2024-03-08T03:42:19;2.77;;;2.23;;
23206;SDS011;11773;52.570;13.052;2024-03-08T03:44:48;2.13;;;1.93;;
23206;SDS011;11773;52.570;13.052;2024-03-08T03:47:19;2.40;;;2.10;;
23206;SDS011;11773;52.570;13.052;2024-03-08T03:49:49;2.60;;;2.10;;
23206;SDS011;11773;52.570;13.052;2024-03-08T03:52:20;3.10;;;2.20;;
23206;SDS011;11773;52.570;13.052;2024-03-08T03:54:49;3.73;;;2.93;;
23206;SDS011;11773;52.570;13.052;2024-03-08T03:57:19;3.67;;;2.60;;
23206;SDS011;11773;52.570;13.052;2024-03-08T03:59:49;3.47;;;2.60;;
23206;SDS011;11773;52.570;13.052;2024-03-08T04:02:19;3.63;;;2.73;;
23206;SDS011;11773;52.570;13.052;2024-03-08T04:04:49;3.40;;;2.70;;
23206;SDS011;11773;52.570;13.052;2024-03-08T04:07:18;2.63;;;2.40;;
23206;SDS011;11773;52.570;13.052;2024-03-08T04:09:48;3.00;;;2.33;;
23206;SDS011;11773;52.570;13.052;2024-03-08T04:12:18;2.60;;;2.40;;
23206;SDS011;11773;52.570;13.052;2024-03-08T04:14:47;2.57;;;2.00;;
23206;SDS011;11773;52.570;13.052;2024-03-08T04:17:17;2.57;;;2.17;;
23206;SDS011;11773;52.570;13.052;2024-03-08T04:19:46;2.80;;;2.20;;
23206;SDS011;11773;52.570;13.052;2024-03-08T04:22:16;2.00;;;1.80;;
23206;SDS011;11773;52.570;13.052;2024-03-08T04:24:46;2.10;;;1.90;;
23206;SDS011;11773;52.570;13.052;2024-03-08T04:27:16;2.80;;;2.00;;
23206;SDS011;11773;52.570;13.052;2024-03-08T04:29:46;2.20;;;1.83;;
23206;SDS011;11773;52.570;13.052;2024-03-08T04:32:15;2.77;;;2.00;;
23206;SDS011;11773;52.570;13.052;2024-03-08T04:34:45;2.10;;;1.87;;
23206;SDS011;11773;52.570;13.052;2024-03-08T04:37:16;3.00;;;2.03;;
23206;SDS011;11773;52.570;13.052;2024-03-08T04:39:47;2.67;;;2.20;;
23206;SDS011;11773;52.570;13.052;2024-03-08T04:42:17;2.73;;;2.23;;
23206;SDS011;11773;52.570;13.052;2024-03-08T04:44:47;2.53;;;2.10;;
23206;SDS011;11773;52.570;13.052;2024-03-08T04:47:17;2.23;;;1.90;;
23206;SDS011;11773;52.570;13.052;2024-03-08T04:49:47;2.87;;;2.50;;
23206;SDS011;11773;52.570;13.052;2024-03-08T04:52:17;2.43;;;2.07;;
23206;SDS011;11773;52.570;13.052;2024-03-08T04:54:49;2.90;;;2.17;;
23206;SDS011;11773;52.570;13.052;2024-03-08T04:57:19;3.37;;;2.50;;
23206;SDS011;11773;52.570;13.052;2024-03-08T04:59:48;3.53;;;2.50;;
23206;SDS011;11773;52.570;13.052;2024-03-08T05:02:18;3.63;;;2.27;;
23206;SDS011;11773;52.570;13.052;2024-03-08T05:04:49;3.13;;;2.63;;
23206;SDS011;11773;52.570;13.052;2024-03-08T05:07:19;2.40;;;2.17;;
23206;SDS011;11773;52.570;13.052;2024-03-08T05:09:48;2.37;;;2.10;;
23206;SDS011;11773;52.570;13.052;2024-03-08T05:12:18;2.63;;;2.00;;
23206;SDS011;11773;52.570;13.052;2024-03-08T05:14:49;3.27;;;2.67;;
23206;SDS011;11773;52.570;13.052;2024-03-08T05:17:19;2.30;;;2.10;;
23206;SDS011;11773;52.570;13.052;2024-03-08T05:19:50;2.40;;;1.97;;
23206;SDS011;11773;52.570;13.052;2024-03-08T05:22:20;2.63;;;2.40;;
23206;SDS011;11773;52.570;13.052;2024-03-08T05:24:50;2.97;;;2.27;;
23206;SDS011;11773;52.570;13.052;2024-03-08T05:27:19;3.00;;;2.20;;
23206;SDS011;11773;52.570;13.052;2024-03-08T05:29:49;3.23;;;2.60;;
23206;SDS011;11773;52.570;13.052;2024-03-08T05:32:19;3.17;;;2.30;;
23206;SDS011;11773;52.570;13.052;2024-03-08T05:34:49;2.60;;;2.00;;
23206;SDS011;11773;52.570;13.052;2024-03-08T05:37:19;3.00;;;2.27;;
23206;SDS011;11773;52.570;13.052;2024-03-08T05:39:49;2.53;;;2.10;;
23206;SDS011;11773;52.570;13.052;2024-03-08T05:42:18;2.37;;;1.90;;
23206;SDS011;11773;52.570;13.052;2024-03-08T05:44:48;2.87;;;2.30;;
23206;SDS011;11773;52.570;13.052;2024-03-08T05:47:17;1.90;;;1.70;;
23206;SDS011;11773;52.570;13.052;2024-03-08T05:49:47;2.77;;;2.30;;
23206;SDS011;11773;52.570;13.052;2024-03-08T05:52:17;3.37;;;2.90;;
23206;SDS011;11773;52.570;13.052;2024-03-08T05:54:46;3.17;;;2.37;;
23206;SDS011;11773;52.570;13.052;2024-03-08T05:57:16;2.50;;;2.13;;
23206;SDS011;11773;52.570;13.052;2024-03-08T05:59:46;2.53;;;2.00;;
23206;SDS011;11773;52.570;13.052;2024-03-08T06:02:15;2.53;;;2.03;;
23206;SDS011;11773;52.570;13.052;2024-03-08T06:04:46;3.07;;;2.40;;
23206;SDS011;11773;52.570;13.052;2024-03-08T06:07:16;3.20;;;2.50;;
23206;SDS011;11773;52.570;13.052;2024-03-08T06:09:47;3.47;;;2.17;;
23206;SDS011;11773;52.570;13.052;2024-03-08T06:12:17;3.60;;;2.67;;
23206;SDS011;11773;52.570;13.052;2024-03-08T06:14:46;2.97;;;1.93;;
23206;SDS011;11773;52.570;13.052;2024-03-08T06:17:17;3.00;;;2.40;;
23206;SDS011;11773;52.570;13.052;2024-03-08T06:19:49;3.30;;;2.53;;
23206;SDS011;11773;52.570;13.052;2024-03-08T06:22:19;2.83;;;2.40;;
23206;SDS011;11773;52.570;13.052;2024-03-08T06:24:49;4.23;;;2.90;;
23206;SDS011;11773;52.570;13.052;2024-03-08T06:27:18;3.20;;;2.70;;
23206;SDS011;11773;52.570;13.052;2024-03-08T06:29:48;3.13;;;2.40;;
23206;SDS011;11773;52.570;13.052;2024-03-08T06:32:18;2.77;;;2.27;;
23206;SDS011;11773;52.570;13.052;2024-03-08T06:34:47;2.33;;;2.10;;
23206;SDS011;11773;52.570;13.052;2024-03-08T06:37:18;3.40;;;2.60;;
23206;SDS011;11773;52.570;13.052;2024-03-08T06:39:48;3.43;;;2.77;;
23206;SDS011;11773;52.570;13.052;2024-03-08T06:42:18;2.90;;;2.43;;
23206;SDS011;11773;52.570;13.052;2024-03-08T06:44:48;2.97;;;2.50;;
23206;SDS011;11773;52.570;13.052;2024-03-08T06:47:17;3.80;;;2.90;;
23206;SDS011;11773;52.570;13.052;2024-03-08T06:49:47;3.67;;;3.10;;
23206;SDS011;11773;52.570;13.052;2024-03-08T06:52:19;4.23;;;3.60;;
23206;SDS011;11773;52.570;13.052;2024-03-08T06:54:53;4.63;;;3.93;;
23206;SDS011;11773;52.570;13.052;2024-03-08T06:57:24;4.83;;;3.80;;
23206;SDS011;11773;52.570;13.052;2024-03-08T06:59:53;4.47;;;3.90;;
23206;SDS011;11773;52.570;13.052;2024-03-08T07:02:24;4.40;;;3.63;;
23206;SDS011;11773;52.570;13.052;2024-03-08T07:04:54;5.27;;;3.90;;
23206;SDS011;11773;52.570;13.052;2024-03-08T07:07:25;5.73;;;4.50;;
23206;SDS011;11773;52.570;13.052;2024-03-08T07:09:56;6.17;;;4.50;;
23206;SDS011;11773;52.570;13.052;2024-03-08T07:12:28;4.80;;;4.10;;
23206;SDS011;11773;52.570;13.052;2024-03-08T07:14:57;4.67;;;3.73;;
23206;SDS011;11773;52.570;13.052;2024-03-08T07:17:27;8.13;;;6.17;;
23206;SDS011;11773;52.570;13.052;2024-03-08T07:19:57;6.53;;;5.00;;
23206;SDS011;11773;52.570;13.052;2024-03-08T07:22:29;4.63;;;4.13;;
23206;SDS011;11773;52.570;13.052;2024-03-08T07:24:58;4.77;;;4.03;;
23206;SDS011;11773;52.570;13.052;2024-03-08T07:27:48;5.60;;;4.53;;
23206;SDS011;11773;52.570;13.052;2024-03-08T07:30:26;7.17;;;5.37;;
23206;SDS011;11773;52.570;13.052;2024-03-08T07:33:15;6.00;;;4.70;;
23206;SDS011;11773;52.570;13.052;2024-03-08T07:35:45;7.13;;;5.83;;
23206;SDS011;11773;52.570;13.052;2024-03-08T07:38:14;13.70;;;10.10;;
23206;SDS011;11773;52.570;13.052;2024-03-08T07:40:44;9.43;;;7.37;;
23206;SDS011;11773;52.570;13.052;2024-03-08T07:43:15;9.73;;;7.70;;
23206;SDS011;11773;52.570;13.052;2024-03-08T07:45:44;9.87;;;7.47;;
23206;SDS011;11773;52.570;13.052;2024-03-08T07:48:14;9.33;;;7.20;;
23206;SDS011;11773;52.570;13.052;2024-03-08T07:50:45;7.30;;;6.07;;
23206;SDS011;11773;52.570;13.052;2024-03-08T07:53:16;10.87;;;8.53;;
23206;SDS011;11773;52.570;13.052;2024-03-08T07:55:46;8.60;;;6.83;;
23206;SDS011;11773;52.570;13.052;2024-03-08T07:58:15;7.27;;;5.40;;
23206;SDS011;11773;52.570;13.052;2024-03-08T08:00:45;5.70;;;4.83;;
23206;SDS011;11773;52.570;13.052;2024-03-08T08:03:16;6.90;;;5.13;;
23206;SDS011;11773;52.570;13.052;2024-03-08T08:05:47;9.57;;;7.33;;
23206;SDS011;11773;52.570;13.052;2024-03-08T08:08:16;14.63;;;10.17;;
23206;SDS011;11773;52.570;13.052;2024-03-08T08:10:46;14.17;;;10.77;;
23206;SDS011;11773;52.570;13.052;2024-03-08T08:13:16;14.40;;;10.57;;
23206;SDS011;11773;52.570;13.052;2024-03-08T08:15:46;15.80;;;11.13;;
23206;SDS011;11773;52.570;13.052;2024-03-08T08:18:15;16.53;;;11.70;;
23206;SDS011;11773;52.570;13.052;2024-03-08T08:20:47;13.80;;;10.70;;
23206;SDS011;11773;52.570;13.052;2024-03-08T08:23:16;16.10;;;10.97;;
23206;SDS011;11773;52.570;13.052;2024-03-08T08:25:47;11.13;;;8.67;;
23206;SDS011;11773;52.570;13.052;2024-03-08T08:28:17;15.00;;;10.40;;
23206;SDS011;11773;52.570;13.052;2024-03-08T08:30:47;12.97;;;9.43;;
23206;SDS011;11773;52.570;13.052;2024-03-08T08:33:17;15.80;;;11.53;;
23206;SDS011;11773;52.570;13.052;2024-03-08T08:35:46;12.67;;;9.30;;
23206;SDS011;11773;52.570;13.052;2024-03-08T08:38:18;12.73;;;9.03;;
23206;SDS011;11773;52.570;13.052;2024-03-08T08:40:47;13.30;;;9.47;;
23206;SDS011;11773;52.570;13.052;2024-03-08T08:43:17;13.50;;;10.43;;
23206;SDS011;11773;52.570;13.052;2024-03-08T08:45:48;15.97;;;11.10;;
23206;SDS011;11773;52.570;13.052;2024-03-08T08:48:20;14.30;;;9.80;;
23206;SDS011;11773;52.570;13.052;2024-03-08T08:50:49;16.90;;;11.20;;
23206;SDS011;11773;52.570;13.052;2024-03-08T08:53:19;15.10;;;10.90;;
23206;SDS011;11773;52.570;13.052;2024-03-08T08:55:49;13.70;;;9.87;;
23206;SDS011;11773;52.570;13.052;2024-03-08T08:58:20;12.23;;;9.53;;
23206;SDS011;11773;52.570;13.052;2024-03-08T09:00:50;13.00;;;10.30;;
23206;SDS011;11773;52.570;13.052;2024-03-08T09:03:20;15.50;;;12.23;;
23206;SDS011;11773;52.570;13.052;2024-03-08T09:05:51;11.67;;;9.07;;
23206;SDS011;11773;52.570;13.052;2024-03-08T09:08:20;12.50;;;9.63;;
23206;SDS011;11773;52.570;13.052;2024-03-08T09:10:50;13.57;;;10.23;;
23206;SDS011;11773;52.570;13.052;2024-03-08T09:13:20;13.27;;;9.57;;
23206;SDS011;11773;52.570;13.052;2024-03-08T09:15:51;14.83;;;11.00;;
23206;SDS011;11773;52.570;13.052;2024-03-08T09:18:37;10.30;;;8.67;;
23206;SDS011;11773;52.570;13.052;2024-03-08T09:21:07;15.93;;;10.70;;
23206;SDS011;11773;52.570;13.052;2024-03-08T09:23:37;13.00;;;9.80;;
23206;SDS011;11773;52.570;13.052;2024-03-08T09:26:08;13.27;;;10.63;;
23206;SDS011;11773;52.570;13.052;2024-03-08T09:28:41;12.40;;;9.17;;
23206;SDS011;11773;52.570;13.052;2024-03-08T09:31:12;11.53;;;8.53;;
23206;SDS011;11773;52.570;13.052;2024-03-08T09:33:43;15.40;;;10.93;;
23206;SDS011;11773;52.570;13.052;2024-03-08T09:36:13;14.40;;;10.43;;
23206;SDS011;11773;52.570;13.052;2024-03-08T09:38:43;12.53;;;10.23;;
23206;SDS011;11773;52.570;13.052;2024-03-08T09:41:12;13.50;;;10.03;;
23206;SDS011;11773;52.570;13.052;2024-03-08T09:43:42;12.77;;;10.03;;
23206;SDS011;11773;52.570;13.052;2024-03-08T09:46:14;12.80;;;10.00;;
23206;SDS011;11773;52.570;13.052;2024-03-08T09:48:46;14.33;;;11.20;;
23206;SDS011;11773;52.570;13.052;2024-03-08T09:51:15;15.87;;;12.00;;
23206;SDS011;11773;52.570;13.052;2024-03-08T09:53:47;12.10;;;9.80;;
23206;SDS011;11773;52.570;13.052;2024-03-08T09:56:16;14.10;;;11.33;;
23206;SDS011;11773;52.570;13.052;2024-03-08T09:58:46;15.70;;;11.77;;
23206;SDS011;11773;52.570;13.052;2024-03-08T10:01:20;16.60;;;12.63;;
23206;SDS011;11773;52.570;13.052;2024-03-08T10:03:50;16.50;;;11.83;;
23206;SDS011;11773;52.570;13.052;2024-03-08T10:06:22;16.23;;;12.70;;
23206;SDS011;11773;52.570;13.052;2024-03-08T10:08:52;18.23;;;13.20;;
23206;SDS011;11773;52.570;13.052;2024-03-08T10:11:22;14.97;;;11.87;;
23206;SDS011;11773;52.570;13.052;2024-03-08T10:13:54;17.80;;;14.40;;
23206;SDS011;11773;52.570;13.052;2024-03-08T10:16:25;19.77;;;15.27;;
23206;SDS011;11773;52.570;13.052;2024-03-08T10:18:56;17.63;;;12.97;;
23206;SDS011;11773;52.570;13.052;2024-03-08T10:21:27;17.95;;;13.53;;
23206;SDS011;11773;52.570;13.052;2024-03-08T10:23:57;14.03;;;11.03;;
23206;SDS011;11773;52.570;13.052;2024-03-08T10:26:26;14.17;;;11.37;;
23206;SDS011;11773;52.570;13.052;2024-03-08T10:28:56;13.63;;;10.47;;
23206;SDS011;11773;52.570;13.052;2024-03-08T10:31:25;14.43;;;10.83;;
23206;SDS011;11773;52.570;13.052;2024-03-08T10:33:55;11.97;;;9.60;;
23206;SDS011;11773;52.570;13.052;2024-03-08T10:36:27;11.00;;;8.57;;
23206;SDS011;11773;52.570;13.052;2024-03-08T10:39:01;15.37;;;12.10;;
23206;SDS011;11773;52.570;13.052;2024-03-08T10:41:34;16.90;;;12.90;;
23206;SDS011;11773;52.570;13.052;2024-03-08T10:44:26;15.30;;;11.53;;
23206;SDS011;11773;52.570;13.052;2024-03-08T10:47:02;14.13;;;10.90;;
23206;SDS011;11773;52.570;13.052;2024-03-08T10:49:54;14.50;;;11.17;;
23206;SDS011;11773;52.570;13.052;2024-03-08T10:52:52;13.83;;;10.87;;
23206;SDS011;11773;52.570;13.052;2024-03-08T10:55:23;13.23;;;10.93;;
23206;SDS011;11773;52.570;13.052;2024-03-08T10:57:56;14.50;;;11.33;;
23206;SDS011;11773;52.570;13.052;2024-03-08T11:00:26;12.47;;;9.97;;
23206;SDS011;11773;52.570;13.052;2024-03-08T11:02:55;11.87;;;9.43;;
23206;SDS011;11773;52.570;13.052;2024-03-08T11:05:38;12.27;;;9.70;;
23206;SDS011;11773;52.570;13.052;2024-03-08T11:16:10;13.47;;;10.43;;
23206;SDS011;11773;52.570;13.052;2024-03-08T11:18:47;12.23;;;10.27;;
23206;SDS011;11773;52.570;13.052;2024-03-08T11:21:17;12.03;;;8.70;;
23206;SDS011;11773;52.570;13.052;2024-03-08T11:24:07;10.70;;;8.30;;
23206;SDS011;11773;52.570;13.052;2024-03-08T11:26:40;10.97;;;8.90;;
23206;SDS011;11773;52.570;13.052;2024-03-08T11:32:07;11.17;;;9.03;;
23206;SDS011;11773;52.570;13.052;2024-03-08T11:34:49;12.70;;;10.50;;
23206;SDS011;11773;52.570;13.052;2024-03-08T11:37:19;10.77;;;8.60;;
23206;SDS011;11773;52.570;13.052;2024-03-08T11:39:53;11.40;;;9.03;;
23206;SDS011;11773;52.570;13.052;2024-03-08T11:42:27;10.50;;;7.93;;
23206;SDS011;11773;52.570;13.052;2024-03-08T11:44:57;11.07;;;8.67;;
23206;SDS011;11773;52.570;13.052;2024-03-08T11:47:27;8.23;;;7.20;;
23206;SDS011;11773;52.570;13.052;2024-03-08T11:49:58;13.20;;;10.43;;
23206;SDS011;11773;52.570;13.052;2024-03-08T11:52:30;13.97;;;10.97;;
23206;SDS011;11773;52.570;13.052;2024-03-08T11:55:00;12.70;;;9.83;;
23206;SDS011;11773;52.570;13.052;2024-03-08T11:57:32;10.27;;;8.40;;
23206;SDS011;11773;52.570;13.052;2024-03-08T12:00:02;8.30;;;6.80;;
23206;SDS011;11773;52.570;13.052;2024-03-08T12:02:34;10.23;;;8.30;;
23206;SDS011;11773;52.570;13.052;2024-03-08T12:05:05;13.03;;;9.47;;
23206;SDS011;11773;52.570;13.052;2024-03-08T12:07:41;10.27;;;8.77;;
23206;SDS011;11773;52.570;13.052;2024-03-08T12:10:30;8.73;;;7.17;;
23206;SDS011;11773;52.570;13.052;2024-03-08T12:12:50;10.40;;;8.30;;
23206;SDS011;11773;52.570;13.052;2024-03-08T12:15:23;9.80;;;7.87;;
23206;SDS011;11773;52.570;13.052;2024-03-08T12:17:54;9.67;;;7.50;;
23206;SDS011;11773;52.570;13.052;2024-03-08T12:20:25;8.97;;;7.00;;
23206;SDS011;11773;52.570;13.052;2024-03-08T12:23:01;11.80;;;9.20;;
23206;SDS011;11773;52.570;13.052;2024-03-08T12:25:35;11.00;;;8.63;;
23206;SDS011;11773;52.570;13.052;2024-03-08T12:28:08;11.40;;;8.33;;
23206;SDS011;11773;52.570;13.052;2024-03-08T12:30:48;9.50;;;7.70;;
23206;SDS011;11773;52.570;13.052;2024-03-08T12:33:25;10.73;;;8.70;;
23206;SDS011;11773;52.570;13.052;2024-03-08T12:35:55;10.97;;;8.67;;
23206;SDS011;11773;52.570;13.052;2024-03-08T12:38:28;9.93;;;8.50;;
23206;SDS011;11773;52.570;13.052;2024-03-08T12:40:59;9.97;;;8.30;;
23206;SDS011;11773;52.570;13.052;2024-03-08T12:43:30;8.70;;;6.93;;
23206;SDS011;11773;52.570;13.052;2024-03-08T12:46:01;9.37;;;7.03;;
23206;SDS011;11773;52.570;13.052;2024-03-08T12:48:34;9.13;;;6.73;;
23206;SDS011;11773;52.570;13.052;2024-03-08T12:51:05;10.20;;;7.13;;
23206;SDS011;11773;52.570;13.052;2024-03-08T12:53:36;10.43;;;8.40;;
23206;SDS011;11773;52.570;13.052;2024-03-08T12:56:07;9.20;;;7.40;;
23206;SDS011;11773;52.570;13.052;2024-03-08T12:58:38;8.37;;;7.07;;
23206;SDS011;11773;52.570;13.052;2024-03-08T13:01:07;10.75;;;8.05;;
23206;SDS011;11773;52.570;13.052;2024-03-08T13:03:39;8.27;;;7.03;;
23206;SDS011;11773;52.570;13.052;2024-03-08T13:06:10;9.43;;;8.13;;
23206;SDS011;11773;52.570;13.052;2024-03-08T13:08:39;11.23;;;7.20;;
23206;SDS011;11773;52.570;13.052;2024-03-08T13:11:11;9.50;;;7.30;;
23206;SDS011;11773;52.570;13.052;2024-03-08T13:13:42;11.37;;;9.40;;
23206;SDS011;11773;52.570;13.052;2024-03-08T13:16:13;10.27;;;8.30;;
23206;SDS011;11773;52.570;13.052;2024-03-08T13:18:44;12.07;;;9.77;;
23206;SDS011;11773;52.570;13.052;2024-03-08T13:21:19;11.40;;;9.73;;
23206;SDS011;11773;52.570;13.052;2024-03-08T13:23:50;11.17;;;9.43;;
23206;SDS011;11773;52.570;13.052;2024-03-08T13:26:20;11.33;;;8.63;;
23206;SDS011;11773;52.570;13.052;2024-03-08T13:28:51;10.13;;;8.20;;
23206;SDS011;11773;52.570;13.052;2024-03-08T13:31:21;9.03;;;7.50;;
23206;SDS011;11773;52.570;13.052;2024-03-08T13:33:51;10.67;;;8.20;;
23206;SDS011;11773;52.570;13.052;2024-03-08T13:36:22;10.53;;;8.17;;
23206;SDS011;11773;52.570;13.052;2024-03-08T13:38:54;11.40;;;9.53;;
23206;SDS011;11773;52.570;13.052;2024-03-08T13:41:26;9.67;;;8.37;;
23206;SDS011;11773;52.570;13.052;2024-03-08T13:43:57;10.87;;;8.40;;
23206;SDS011;11773;52.570;13.052;2024-03-08T13:46:27;10.70;;;9.07;;
23206;SDS011;11773;52.570;13.052;2024-03-08T13:48:57;11.40;;;9.77;;
23206;SDS011;11773;52.570;13.052;2024-03-08T13:51:35;9.87;;;8.23;;
23206;SDS011;11773;52.570;13.052;2024-03-08T13:54:05;11.33;;;8.33;;
23206;SDS011;11773;52.570;13.052;2024-03-08T13:56:35;10.63;;;8.17;;
23206;SDS011;11773;52.570;13.052;2024-03-08T13:59:04;10.30;;;9.10;;
23206;SDS011;11773;52.570;13.052;2024-03-08T14:01:36;10.47;;;8.03;;
23206;SDS011;11773;52.570;13.052;2024-03-08T14:04:05;8.80;;;7.37;;
23206;SDS011;11773;52.570;13.052;2024-03-08T14:06:35;11.13;;;9.23;;
23206;SDS011;11773;52.570;13.052;2024-03-08T14:09:05;10.53;;;8.30;;
23206;SDS011;11773;52.570;13.052;2024-03-08T14:11:35;12.10;;;8.20;;
23206;SDS011;11773;52.570;13.052;2024-03-08T14:14:05;8.73;;;7.17;;
23206;SDS011;11773;52.570;13.052;2024-03-08T14:16:36;8.97;;;7.10;;
23206;SDS011;11773;52.570;13.052;2024-03-08T14:19:05;10.43;;;8.23;;
23206;SDS011;11773;52.570;13.052;2024-03-08T14:21:37;10.97;;;8.80;;
23206;SDS011;11773;52.570;13.052;2024-03-08T14:24:06;10.97;;;9.13;;
23206;SDS011;11773;52.570;13.052;2024-03-08T14:26:36;11.33;;;9.50;;
23206;SDS011;11773;52.570;13.052;2024-03-08T14:29:05;10.00;;;7.80;;
23206;SDS011;11773;52.570;13.052;2024-03-08T14:31:38;9.10;;;7.73;;
23206;SDS011;11773;52.570;13.052;2024-03-08T14:34:08;10.40;;;8.40;;
23206;SDS011;11773;52.570;13.052;2024-03-08T14:36:38;11.77;;;9.50;;
23206;SDS011;11773;52.570;13.052;2024-03-08T14:39:08;10.30;;;8.13;;
23206;SDS011;11773;52.570;13.052;2024-03-08T14:41:39;8.87;;;7.63;;
23206;SDS011;11773;52.570;13.052;2024-03-08T14:44:10;9.50;;;7.43;;
23206;SDS011;11773;52.570;13.052;2024-03-08T14:46:40;8.97;;;7.00;;
23206;SDS011;11773;52.570;13.052;2024-03-08T14:49:10;8.73;;;7.30;;
23206;SDS011;11773;52.570;13.052;2024-03-08T14:51:40;8.53;;;7.60;;
23206;SDS011;11773;52.570;13.052;2024-03-08T14:54:10;8.73;;;7.63;;
23206;SDS011;11773;52.570;13.052;2024-03-08T14:56:41;10.37;;;8.40;;
23206;SDS011;11773;52.570;13.052;2024-03-08T14:59:10;13.87;;;11.30;;
23206;SDS011;11773;52.570;13.052;2024-03-08T15:01:40;12.43;;;9.97;;